Time;durP1;ratioP1;P1;durP2;ratioP2;P2;SDS_P1;SDS_P2;PMS_P1;PMS_P2;Temp;Humidity;BMP_temperature;BMP_pressure;BME280_temperature;BME280_humidity;BME280_pressure;Samples;Min_cycle;Max_cycle;Signal;HPM_P1;HPM_P2
2023/12/18 00:01:01;;;;;;;7.55;4.53;;;;;;;16.25;60.53;103011.50;10455756;28;20267;-55
2023/12/18 00:06:02;;;;;;;7.80;4.57;;;;;;;16.25;59.38;103014.97;10454680;28;20049;-53
2023/12/18 00:11:03;;;;;;;5.63;3.70;;;;;;;16.24;59.88;103008.00;10455074;28;20035;-54
2023/12/18 00:16:03;;;;;;;5.70;3.63;;;;;;;16.24;59.92;103001.81;10459659;28;20034;-54
2023/12/18 00:21:04;;;;;;;6.28;3.75;;;;;;;16.22;61.11;103001.22;10496353;28;20024;-52
2023/12/18 00:26:04;;;;;;;5.68;3.60;;;;;;;16.20;61.04;103004.13;10495717;28;20112;-52
2023/12/18 00:31:04;;;;;;;5.73;3.57;;;;;;;16.21;60.53;102991.53;10477481;28;20085;-53
2023/12/18 00:36:05;;;;;;;4.85;3.33;;;;;;;16.17;59.71;102980.47;10453943;28;20275;-54
2023/12/18 00:41:05;;;;;;;5.40;4.32;;;;;;;16.17;61.01;102976.97;10453975;28;20480;-52
2023/12/18 00:46:05;;;;;;;3.83;3.00;;;;;;;16.15;60.55;102987.09;10453507;28;20025;-54
2023/12/18 00:51:09;;;;;;;5.97;4.10;;;;;;;16.15;59.82;102989.78;10452418;28;20102;-54
2023/12/18 00:56:10;;;;;;;6.07;3.30;;;;;;;16.14;59.55;102996.19;10452565;28;20052;-53
2023/12/18 01:01:10;;;;;;;3.83;2.90;;;;;;;16.13;60.11;102984.66;10453060;28;20021;-54
2023/12/18 01:06:10;;;;;;;4.30;3.07;;;;;;;16.11;60.92;102975.22;10452292;28;20295;-51
2023/12/18 01:11:11;;;;;;;5.10;3.45;;;;;;;16.10;60.25;102979.72;10451177;28;20799;-52
2023/12/18 01:16:11;;;;;;;5.78;3.13;;;;;;;16.09;59.93;102973.56;10457633;28;20426;-52
2023/12/18 01:21:15;;;;;;;6.53;3.95;;;;;;;16.07;60.13;102974.81;10493599;28;20048;-53
2023/12/18 01:26:15;;;;;;;5.60;4.28;;;;;;;16.06;61.15;102981.22;10492969;28;20036;-49
2023/12/18 01:31:22;;;;;;;7.23;4.20;;;;;;;16.05;60.13;102985.75;10471955;28;20423;-49
2023/12/18 01:36:23;;;;;;;5.30;3.70;;;;;;;16.04;59.81;102977.97;10450821;28;20276;-53
2023/12/18 01:41:23;;;;;;;5.75;3.63;;;;;;;16.04;60.64;102977.97;10451643;28;20037;-51
2023/12/18 01:46:24;;;;;;;5.17;3.53;;;;;;;16.04;60.48;102980.63;10450730;28;20020;-49
2023/12/18 01:51:25;;;;;;;4.20;3.20;;;;;;;16.03;60.12;102970.97;10449797;28;20642;-53
2023/12/18 01:56:28;;;;;;;4.60;3.50;;;;;;;16.02;59.68;102964.00;10437689;28;20025;-48
2023/12/18 02:01:29;;;;;;;7.60;4.03;;;;;;;16.01;59.59;102962.34;10449518;28;20032;-49
2023/12/18 02:06:30;;;;;;;5.07;3.38;;;;;;;15.99;60.59;102956.41;10448028;28;20037;-52
2023/12/18 02:11:30;;;;;;;5.95;2.80;;;;;;;15.98;59.71;102952.06;10440606;28;20032;-53
2023/12/18 02:16:30;;;;;;;6.25;3.55;;;;;;;15.97;60.72;102961.97;10458862;28;20020;-53
2023/12/18 02:21:31;;;;;;;6.60;3.55;;;;;;;15.97;61.10;102953.94;10491777;28;20438;-51
2023/12/18 02:26:31;;;;;;;4.23;2.90;;;;;;;15.96;60.27;102954.97;10491344;28;20031;-51
2023/12/18 02:31:34;;;;;;;4.47;3.97;;;;;;;15.94;60.31;102959.75;10476306;28;20287;-53
2023/12/18 02:36:35;;;;;;;5.18;3.55;;;;;;;15.94;59.69;102973.13;10453072;28;20746;-53
2023/12/18 02:41:35;;;;;;;4.50;3.63;;;;;;;15.92;60.60;102964.50;10449090;28;20036;-51
2023/12/18 02:46:36;;;;;;;5.15;3.20;;;;;;;15.91;60.44;102954.03;10449843;28;20033;-52
2023/12/18 02:51:36;;;;;;;5.57;3.40;;;;;;;15.89;59.38;102948.91;10449016;28;20021;-53
2023/12/18 02:56:36;;;;;;;5.87;3.70;;;;;;;15.88;60.11;102944.59;10449590;28;20098;-53
2023/12/18 03:01:36;;;;;;;4.87;3.37;;;;;;;15.87;59.80;102940.28;10448813;28;20275;-52
2023/12/18 03:06:37;;;;;;;4.30;3.17;;;;;;;15.88;59.35;102943.78;10449194;28;20302;-51
2023/12/18 03:11:39;;;;;;;4.23;3.37;;;;;;;15.87;60.56;102944.81;10448633;28;20037;-52
2023/12/18 03:16:40;;;;;;;4.78;2.85;;;;;;;15.86;59.33;102945.81;10459381;28;20863;-51
2023/12/18 03:21:40;;;;;;;5.25;3.55;;;;;;;15.85;59.69;102947.69;10497884;28;20031;-51
2023/12/18 03:26:41;;;;;;;5.33;3.10;;;;;;;15.84;59.92;102943.38;10496337;28;20025;-52
2023/12/18 03:31:41;;;;;;;4.72;2.80;;;;;;;15.83;60.60;102944.41;10466020;28;20283;-50
2023/12/18 03:36:41;;;;;;;4.33;3.20;;;;;;;15.84;60.57;102945.25;10456533;28;20094;-49
2023/12/18 03:41:42;;;;;;;4.97;2.83;;;;;;;15.89;60.85;102926.69;10455631;28;20313;-49
2023/12/18 03:46:42;;;;;;;4.13;2.60;;;;;;;16.20;60.49;102933.69;10455901;28;20362;-50
2023/12/18 03:51:43;;;;;;;5.53;3.05;;;;;;;16.36;59.69;102938.47;10455218;28;20900;-51
2023/12/18 03:56:43;;;;;;;5.33;3.07;;;;;;;16.58;59.03;102938.78;10455600;28;20032;-52
2023/12/18 04:01:43;;;;;;;4.88;2.63;;;;;;;16.78;58.28;102939.31;10455023;28;20332;-50
2023/12/18 04:06:44;;;;;;;5.57;3.30;;;;;;;16.99;57.29;102931.81;10455176;28;20091;-50
2023/12/18 04:11:44;;;;;;;4.07;3.22;;;;;;;17.09;57.63;102935.53;10454622;28;20028;-53
2023/12/18 04:16:44;;;;;;;4.53;3.05;;;;;;;17.23;57.24;102930.78;10465357;28;20029;-52
2023/12/18 04:21:45;;;;;;;5.30;3.10;;;;;;;17.32;57.32;102926.72;10494240;28;20037;-53
2023/12/18 04:26:46;;;;;;;4.20;2.53;;;;;;;17.43;55.90;102915.16;10440057;28;20287;-53
2023/12/18 04:31:47;;;;;;;5.22;3.08;;;;;;;17.50;56.36;102915.84;10462889;28;20302;-52
2023/12/18 04:36:47;;;;;;;4.53;3.25;;;;;;;17.65;56.84;102911.88;10463529;28;20138;-51
2023/12/18 04:41:48;;;;;;;4.82;2.60;;;;;;;17.71;57.01;102903.72;10453177;28;20031;-52
2023/12/18 04:46:48;;;;;;;3.53;3.05;;;;;;;17.78;58.14;102909.78;10461259;28;20040;-47
2023/12/18 04:51:49;;;;;;;4.23;2.83;;;;;;;17.88;56.57;102916.41;10463078;28;20075;-49
2023/12/18 04:56:49;;;;;;;4.80;3.40;;;;;;;17.92;57.01;102913.03;10455575;28;20735;-52
2023/12/18 05:01:50;;;;;;;4.50;3.27;;;;;;;17.99;56.47;102916.38;10467962;28;20488;-52
2023/12/18 05:06:50;;;;;;;4.20;3.20;;;;;;;18.00;57.24;102918.03;10453138;28;20356;-51
2023/12/18 05:11:50;;;;;;;3.57;2.47;;;;;;;18.00;57.09;102920.72;10456764;28;20295;-48
2023/12/18 05:16:51;;;;;;;4.73;3.03;;;;;;;18.02;56.64;102918.59;10460848;28;20361;-50
2023/12/18 05:21:51;;;;;;;4.30;2.70;;;;;;;17.99;56.77;102921.75;10463658;28;20276;-47
2023/12/18 05:26:51;;;;;;;4.23;2.40;;;;;;;17.98;56.66;102913.94;10468525;28;20753;-52
2023/12/18 05:31:52;;;;;;;4.57;2.57;;;;;;;17.90;56.25;102908.94;10464796;28;20298;-49
2023/12/18 05:36:52;;;;;;;3.45;2.30;;;;;;;17.87;56.51;102898.66;10451464;28;20279;-50
2023/12/18 05:41:52;;;;;;;5.13;2.85;;;;;;;17.88;56.51;102901.13;10450994;28;20357;-50
2023/12/18 05:46:53;;;;;;;3.63;2.97;;;;;;;17.87;57.59;102894.13;10451196;28;20032;-50
2023/12/18 05:51:53;;;;;;;3.73;2.67;;;;;;;17.85;57.24;102893.53;10450694;28;20348;-51
2023/12/18 05:56:53;;;;;;;5.13;3.00;;;;;;;17.92;56.99;102893.41;10449606;28;20271;-52
2023/12/18 06:01:53;;;;;;;5.37;2.40;;;;;;;17.94;57.63;102910.09;10450456;28;20738;-52
2023/12/18 06:06:54;;;;;;;7.70;2.70;;;;;;;17.98;56.95;102898.63;10480483;28;20302;-52
2023/12/18 06:11:54;;;;;;;7.32;2.65;;;;;;;17.94;57.43;102900.19;10533277;28;20790;-52
2023/12/18 06:16:54;;;;;;;8.97;2.77;;;;;;;17.90;59.35;102917.81;10501577;28;20031;-51
2023/12/18 06:21:56;;;;;;;10.65;3.60;;;;;;;17.96;58.70;102913.34;10532804;28;20283;-54
2023/12/18 06:26:56;;;;;;;12.55;4.63;;;;;;;17.88;58.06;102902.97;10533147;28;20391;-50
2023/12/18 06:31:57;;;;;;;11.32;3.33;;;;;;;17.84;59.41;102897.28;10532799;28;20341;-52
2023/12/18 06:36:58;;;;;;;8.70;4.00;;;;;;;17.84;57.93;102899.97;10532975;28;20023;-49
2023/12/18 06:41:58;;;;;;;12.13;3.50;;;;;;;17.82;58.90;102897.53;10532706;28;20026;-51
2023/12/18 06:46:58;;;;;;;10.98;3.42;;;;;;;17.79;58.31;102892.63;10532706;28;20334;-47
2023/12/18 06:51:59;;;;;;;18.42;3.83;;;;;;;17.79;58.50;102902.56;10514816;28;20013;-51
2023/12/18 06:57:00;;;;;;;14.90;3.65;;;;;;;17.83;59.18;102901.84;10540794;28;20069;-50
2023/12/18 07:02:00;;;;;;;18.65;4.75;;;;;;;17.75;59.34;102901.38;10540788;28;20024;-50
2023/12/18 07:07:00;;;;;;;18.77;4.93;;;;;;;17.79;58.74;102908.75;10533108;28;20432;-50
2023/12/18 07:12:02;;;;;;;33.53;6.70;;;;;;;17.70;60.26;102903.97;10529977;28;20301;-47
2023/12/18 07:17:02;;;;;;;38.70;7.70;;;;;;;17.70;59.52;102910.16;10531596;28;20291;-49
2023/12/18 07:22:02;;;;;;;20.90;6.13;;;;;;;17.60;60.65;102904.53;10520806;28;20694;-48
2023/12/18 07:27:03;;;;;;;29.88;6.78;;;;;;;17.62;60.38;102901.59;10538134;28;20301;-48
2023/12/18 07:32:04;;;;;;;22.73;5.38;;;;;;;17.57;60.17;102898.81;10512927;28;20044;-47
2023/12/18 07:37:05;;;;;;;20.77;4.80;;;;;;;17.48;59.59;102895.69;10520776;28;20075;-47
2023/12/18 07:42:06;;;;;;;15.90;5.10;;;;;;;17.48;60.14;102893.00;10536701;28;20539;-46
2023/12/18 07:47:07;;;;;;;21.93;5.53;;;;;;;17.42;60.53;102892.09;10539450;28;20062;-46
2023/12/18 07:52:08;;;;;;;16.45;4.70;;;;;;;17.40;59.81;102887.97;10538420;28;20301;-47
2023/12/18 07:57:08;;;;;;;12.73;4.63;;;;;;;17.37;59.86;102886.59;10535348;28;20032;-45
2023/12/18 08:02:09;;;;;;;23.73;5.50;;;;;;;17.39;61.38;102889.84;10537308;28;20020;-45
2023/12/18 08:07:10;;;;;;;17.23;5.47;;;;;;;17.42;60.33;102883.22;10536052;28;20768;-46
2023/12/18 08:12:10;;;;;;;11.13;5.13;;;;;;;17.41;60.13;102895.00;10534377;28;20170;-50
2023/12/18 08:17:11;;;;;;;13.95;4.13;;;;;;;17.41;60.85;102886.97;10536907;28;20065;-50
2023/12/18 08:22:12;;;;;;;14.35;4.55;;;;;;;17.42;61.24;102884.03;10523128;28;20020;-48
2023/12/18 08:27:13;;;;;;;11.03;4.27;;;;;;;17.43;60.58;102885.66;10533120;28;20670;-46
2023/12/18 08:32:13;;;;;;;14.25;4.18;;;;;;;17.35;60.94;102877.97;10506785;28;20294;-47
2023/12/18 08:37:14;;;;;;;12.55;4.65;;;;;;;17.40;61.21;102886.09;10527074;28;20028;-46
2023/12/18 08:42:14;;;;;;;11.27;5.03;;;;;;;17.38;60.02;102890.09;10532754;28;20153;-47
2023/12/18 08:47:15;;;;;;;12.23;3.90;;;;;;;17.37;60.10;102888.47;10535447;28;20032;-47
2023/12/18 08:52:15;;;;;;;16.60;4.40;;;;;;;17.41;59.71;102881.59;10515977;28;20295;-46
2023/12/18 08:57:15;;;;;;;10.80;3.97;;;;;;;17.32;59.97;102870.41;10530886;28;20282;-49
2023/12/18 09:02:16;;;;;;;10.20;4.03;;;;;;;17.30;59.44;102879.72;10513905;28;20342;-49
2023/12/18 09:07:16;;;;;;;12.98;4.07;;;;;;;17.34;59.21;102880.88;10534657;28;20347;-51
2023/12/18 09:12:16;;;;;;;11.70;4.15;;;;;;;17.34;59.54;102888.94;10515923;28;20032;-50
2023/12/18 09:17:17;;;;;;;9.30;4.20;;;;;;;17.34;59.70;102876.34;10507635;28;20039;-47
2023/12/18 09:22:17;;;;;;;8.95;3.53;;;;;;;17.36;60.46;102871.56;10534076;28;20277;-49
2023/12/18 09:27:18;;;;;;;5.63;2.73;;;;;;;17.40;59.91;102866.53;10522348;28;20020;-50
2023/12/18 09:32:18;;;;;;;7.33;3.47;;;;;;;17.37;58.69;102872.38;10530393;28;20293;-52
2023/12/18 09:37:18;;;;;;;8.23;3.42;;;;;;;17.38;59.73;102863.28;10534571;28;20606;-47
2023/12/18 09:42:18;;;;;;;7.23;4.20;;;;;;;17.37;59.36;102850.91;10524225;28;20531;-47
2023/12/18 09:47:19;;;;;;;9.67;3.70;;;;;;;17.39;58.26;102854.97;10533370;28;20318;-48
2023/12/18 09:52:22;;;;;;;5.20;2.72;;;;;;;17.40;59.52;102853.94;10514654;28;20649;-49
2023/12/18 09:57:23;;;;;;;10.48;3.58;;;;;;;17.37;58.03;102846.38;10532112;28;20082;-49
2023/12/18 10:02:24;;;;;;;6.78;3.28;;;;;;;17.40;58.82;102839.72;10532508;28;20154;-50
2023/12/18 10:07:24;;;;;;;6.93;3.28;;;;;;;17.41;59.38;102842.19;10514574;28;20678;-50
2023/12/18 10:12:25;;;;;;;10.13;3.17;;;;;;;17.39;59.18;102843.44;10529563;28;20020;-50
2023/12/18 10:17:25;;;;;;;7.45;3.42;;;;;;;17.46;59.61;102846.81;10532161;28;20277;-51
2023/12/18 10:22:26;;;;;;;5.83;2.97;;;;;;;17.48;58.35;102848.22;10532415;28;20024;-50
2023/12/18 10:27:26;;;;;;;8.82;3.65;;;;;;;17.48;59.29;102842.03;10509099;28;20294;-51
2023/12/18 10:32:27;;;;;;;6.90;2.57;;;;;;;17.42;59.92;102843.00;10518960;28;20028;-47
2023/12/18 10:37:29;;;;;;;7.43;2.72;;;;;;;17.41;58.22;102831.47;10531567;28;20313;-49
2023/12/18 10:42:31;;;;;;;4.53;3.40;;;;;;;17.36;59.63;102828.66;10528891;28;20031;-50
2023/12/18 10:47:32;;;;;;;7.07;2.83;;;;;;;17.35;59.31;102816.28;10530144;28;20085;-50
2023/12/18 10:52:33;;;;;;;4.60;3.03;;;;;;;17.35;62.38;102804.75;10530562;28;20514;-47
2023/12/18 10:57:33;;;;;;;4.60;2.55;;;;;;;17.28;60.35;102804.06;10518833;28;20056;-48
2023/12/18 11:02:34;;;;;;;7.25;3.40;;;;;;;17.23;59.55;102799.41;10513393;28;20065;-50
2023/12/18 11:07:35;;;;;;;5.35;2.92;;;;;;;17.22;61.03;102790.56;10518593;28;20650;-50
2023/12/18 11:12:37;;;;;;;8.15;3.72;;;;;;;17.28;62.21;102785.28;10512877;28;20032;-51
2023/12/18 11:17:43;;;;;;;9.45;3.88;;;;;;;17.25;61.65;102776.66;10510957;28;20809;-48
2023/12/18 11:22:45;;;;;;;5.05;3.10;;;;;;;17.24;61.29;102787.63;10502571;28;20038;-48
2023/12/18 11:27:50;;;;;;;9.02;3.88;;;;;;;17.20;60.85;102781.94;10484177;28;20054;-47
2023/12/18 11:32:52;;;;;;;8.13;3.10;;;;;;;17.18;62.46;102776.00;10524428;28;20609;-52
2023/12/18 11:37:52;;;;;;;9.50;3.33;;;;;;;17.15;61.26;102776.44;10514564;28;20025;-51
2023/12/18 11:42:52;;;;;;;7.13;3.22;;;;;;;17.14;61.78;102763.28;10531324;28;20035;-50
2023/12/18 11:47:53;;;;;;;9.13;3.07;;;;;;;17.13;60.91;102764.34;10499719;28;20372;-51
2023/12/18 11:52:56;;;;;;;7.95;2.90;;;;;;;17.15;60.97;102746.16;10518455;28;20293;-50
2023/12/18 11:57:57;;;;;;;7.20;2.92;;;;;;;17.16;61.63;102748.59;10518352;28;20016;-48
2023/12/18 12:02:58;;;;;;;6.20;2.47;;;;;;;17.17;60.63;102746.75;10515664;28;20105;-49
2023/12/18 12:07:59;;;;;;;6.25;2.67;;;;;;;17.18;61.18;102743.84;10508045;28;20054;-49
2023/12/18 12:12:59;;;;;;;4.38;2.55;;;;;;;17.19;61.33;102729.38;10518843;28;20106;-50
2023/12/18 12:18:02;;;;;;;8.97;3.73;;;;;;;17.21;61.50;102729.94;10518265;28;20493;-51
2023/12/18 12:23:02;;;;;;;8.50;3.42;;;;;;;17.25;61.84;102712.31;10533919;28;20591;-51
2023/12/18 12:28:03;;;;;;;8.20;3.22;;;;;;;17.21;62.09;102719.22;10535146;28;20032;-52
2023/12/18 12:33:03;;;;;;;8.63;3.47;;;;;;;17.22;62.08;102720.84;10535530;28;20032;-50
2023/12/18 12:38:04;;;;;;;9.18;2.75;;;;;;;17.25;61.52;102719.56;10528273;28;20456;-50
2023/12/18 12:43:05;;;;;;;8.77;3.25;;;;;;;17.26;60.02;102707.78;10517540;28;20029;-50
2023/12/18 12:48:07;;;;;;;5.60;3.35;;;;;;;17.30;59.69;102711.63;10534283;28;20030;-53
2023/12/18 12:53:09;;;;;;;6.03;3.55;;;;;;;17.34;61.02;102709.28;10516629;28;20555;-51
2023/12/18 12:58:11;;;;;;;8.10;3.53;;;;;;;17.32;59.88;102706.03;10521891;28;20255;-51
2023/12/18 13:03:11;;;;;;;4.40;2.80;;;;;;;17.31;59.33;102697.16;10534179;28;20036;-51
2023/12/18 13:08:12;;;;;;;8.57;3.85;;;;;;;17.33;59.88;102678.16;10533116;28;20454;-50
2023/12/18 13:13:12;;;;;;;5.90;2.92;;;;;;;17.31;59.43;102675.72;10524866;28;20194;-48
2023/12/18 13:18:14;;;;;;;6.10;3.07;;;;;;;17.26;59.95;102670.25;10516121;28;20395;-56
2023/12/18 13:23:14;;;;;;;11.52;3.83;;;;;;;17.37;59.51;102666.69;10533703;28;20366;-56
2023/12/18 13:28:14;;;;;;;16.35;4.18;;;;;;;17.46;59.87;102653.72;10514818;28;20107;-53
2023/12/18 13:33:15;;;;;;;11.45;5.28;;;;;;;17.55;59.75;102663.03;10530504;28;20032;-53
2023/12/18 13:38:16;;;;;;;14.65;4.78;;;;;;;17.62;61.24;102660.16;10528221;28;20021;-53
2023/12/18 13:43:16;;;;;;;23.20;4.57;;;;;;;17.58;61.43;102654.50;10530207;28;20020;-52
2023/12/18 13:48:16;;;;;;;11.32;4.93;;;;;;;17.57;61.73;102660.09;10532167;28;20294;-49
2023/12/18 13:53:17;;;;;;;11.93;3.97;;;;;;;17.57;61.71;102647.50;10529229;28;20673;-52
2023/12/18 13:58:17;;;;;;;18.57;4.80;;;;;;;17.55;61.85;102633.53;10531907;28;20266;-48
2023/12/18 14:03:17;;;;;;;20.10;4.73;;;;;;;17.49;61.46;102621.06;10507690;28;20286;-53
2023/12/18 14:08:18;;;;;;;18.70;4.90;;;;;;;17.55;61.24;102617.44;10529749;28;20668;-54
2023/12/18 14:13:18;;;;;;;10.13;4.30;;;;;;;17.44;61.61;102605.69;10532842;28;20285;-54
2023/12/18 14:18:18;;;;;;;15.27;4.88;;;;;;;17.45;61.90;102610.00;10532231;28;20258;-54
2023/12/18 14:23:19;;;;;;;25.35;4.60;;;;;;;17.45;62.30;102606.50;10523657;28;20027;-55
2023/12/18 14:28:19;;;;;;;22.60;6.23;;;;;;;17.36;62.20;102619.50;10532049;28;20052;-51
2023/12/18 14:33:20;;;;;;;32.65;5.28;;;;;;;17.40;62.98;102615.25;10532435;28;20289;-55
2023/12/18 14:38:20;;;;;;;35.63;6.50;;;;;;;17.27;62.64;102628.97;10530471;28;20510;-53
2023/12/18 14:43:20;;;;;;;49.20;9.57;;;;;;;17.19;64.10;102626.69;10527680;28;20297;-54
2023/12/18 14:48:21;;;;;;;34.80;6.30;;;;;;;17.29;62.70;102647.53;10529758;28;20039;-55
2023/12/18 14:53:21;;;;;;;33.92;7.13;;;;;;;17.31;63.07;102623.97;10519235;28;20338;-55
2023/12/18 14:58:21;;;;;;;41.90;7.20;;;;;;;17.33;63.18;102611.94;10518601;28;20107;-55
2023/12/18 15:03:22;;;;;;;41.53;7.23;;;;;;;17.21;63.54;102612.00;10519129;28;20722;-56
2023/12/18 15:08:22;;;;;;;47.35;8.43;;;;;;;17.12;63.71;102616.09;10520226;28;20385;-56
2023/12/18 15:13:22;;;;;;;30.13;7.73;;;;;;;17.11;63.02;102627.88;10500552;28;20388;-54
2023/12/18 15:18:23;;;;;;;43.30;10.67;;;;;;;17.21;62.79;102641.47;10542339;28;20278;-55
2023/12/18 15:23:23;;;;;;;37.83;8.47;;;;;;;17.12;63.42;102628.69;10534402;28;20884;-56
2023/12/18 15:28:23;;;;;;;22.77;8.13;;;;;;;17.20;65.33;102637.19;10509146;28;20298;-56
2023/12/18 15:33:23;;;;;;;21.67;7.93;;;;;;;17.10;64.37;102607.50;10528633;28;20377;-54
2023/12/18 15:38:24;;;;;;;47.23;7.93;;;;;;;17.03;64.97;102612.16;10527999;28;20339;-54
2023/12/18 15:43:24;;;;;;;29.70;9.10;;;;;;;17.13;64.48;102606.19;10534545;28;20335;-57
2023/12/18 15:48:25;;;;;;;20.20;6.53;;;;;;;17.11;65.14;102609.13;10499683;28;20840;-55
2023/12/18 15:53:27;;;;;;;26.60;7.88;;;;;;;17.11;64.33;102610.97;10522248;28;20028;-55
2023/12/18 15:58:27;;;;;;;33.30;7.22;;;;;;;17.08;65.05;102598.06;10526532;28;20031;-55
2023/12/18 16:03:28;;;;;;;18.83;6.73;;;;;;;16.99;63.99;102586.09;10500859;28;20497;-55
2023/12/18 16:08:28;;;;;;;18.50;7.18;;;;;;;17.10;62.30;102564.59;10504794;28;20290;-55
2023/12/18 16:13:29;;;;;;;23.48;6.88;;;;;;;17.21;62.96;102561.06;10509000;28;20150;-55
2023/12/18 16:18:29;;;;;;;18.38;7.53;;;;;;;17.34;62.55;102564.50;10508069;28;20016;-53
2023/12/18 16:23:29;;;;;;;19.77;8.15;;;;;;;17.40;61.49;102584.97;10506359;28;20031;-54
2023/12/18 16:28:29;;;;;;;22.90;7.73;;;;;;;17.57;61.00;102579.63;10506688;28;20101;-53
2023/12/18 16:33:30;;;;;;;20.90;10.13;;;;;;;17.81;62.98;102589.97;10532116;28;20810;-54
2023/12/18 16:38:31;;;;;;;18.50;9.45;;;;;;;18.04;64.62;102580.94;10534410;28;20351;-51
2023/12/18 16:43:31;;;;;;;21.83;8.20;;;;;;;18.17;64.71;102560.16;10530997;28;20032;-52
2023/12/18 16:48:31;;;;;;;17.80;7.93;;;;;;;18.08;63.45;102565.97;10533267;28;20029;-54
2023/12/18 16:53:32;;;;;;;24.20;8.77;;;;;;;18.01;65.28;102553.78;10530600;28;20293;-53
2023/12/18 16:58:32;;;;;;;21.60;7.53;;;;;;;17.97;64.33;102566.88;10532995;28;20020;-54
2023/12/18 17:03:32;;;;;;;19.70;7.20;;;;;;;18.05;64.13;102546.84;10504021;28;20047;-54
2023/12/18 17:08:34;;;;;;;20.40;7.83;;;;;;;18.04;64.87;102567.53;10529219;28;20294;-52
2023/12/18 17:13:34;;;;;;;25.35;8.05;;;;;;;18.09;63.50;102588.25;10522977;28;20331;-52
2023/12/18 17:18:35;;;;;;;23.57;8.30;;;;;;;18.11;63.39;102605.75;10532264;28;20051;-55
2023/12/18 17:23:35;;;;;;;30.30;9.37;;;;;;;18.04;64.18;102596.22;10529640;28;20285;-53
2023/12/18 17:28:35;;;;;;;24.98;9.63;;;;;;;18.16;63.11;102551.31;10532175;28;20756;-52
2023/12/18 17:33:36;;;;;;;277.33;175.83;;;;;;;18.02;63.64;102550.84;10529942;28;20037;-49
2023/12/18 17:38:36;;;;;;;84.30;44.63;;;;;;;17.91;63.55;102545.59;10487696;28;21038;-50
2023/12/18 17:43:36;;;;;;;71.68;36.15;;;;;;;17.90;63.48;102534.03;10531496;28;20442;-53
2023/12/18 17:48:37;;;;;;;61.27;30.03;;;;;;;17.78;62.70;102528.75;10530419;28;20027;-49
2023/12/18 17:53:37;;;;;;;63.90;30.73;;;;;;;17.75;63.63;102498.91;10532990;28;20278;-52
2023/12/18 17:58:38;;;;;;;99.30;55.23;;;;;;;17.70;63.96;102501.53;10514981;28;20020;-53
2023/12/18 18:03:38;;;;;;;71.07;36.33;;;;;;;17.63;64.31;102506.22;10530353;28;20331;-51
2023/12/18 18:08:38;;;;;;;66.17;33.03;;;;;;;17.55;63.99;102520.88;10512300;28;20076;-51
2023/12/18 18:13:38;;;;;;;56.35;33.47;;;;;;;17.45;63.70;102488.53;10532290;28;20039;-53
2023/12/18 18:18:39;;;;;;;63.23;31.37;;;;;;;17.42;64.63;102480.97;10532699;28;20118;-46
2023/12/18 18:23:40;;;;;;;57.87;30.30;;;;;;;17.45;63.05;102475.91;10520271;28;20293;-51
2023/12/18 18:28:40;;;;;;;57.28;32.97;;;;;;;17.41;63.81;102490.06;10532622;28;20653;-50
2023/12/18 18:33:41;;;;;;;59.20;29.60;;;;;;;17.36;63.09;102535.56;10534502;28;20024;-51
2023/12/18 18:38:43;;;;;;;45.57;27.27;;;;;;;17.30;63.71;102499.81;10511687;28;20732;-53
2023/12/18 18:43:43;;;;;;;59.92;29.23;;;;;;;17.24;64.47;102473.97;10529291;28;20281;-50
2023/12/18 18:48:44;;;;;;;45.47;25.23;;;;;;;17.31;64.22;102468.47;10531955;28;20364;-53
2023/12/18 18:53:44;;;;;;;42.25;24.30;;;;;;;17.27;62.95;102476.16;10520354;28;20336;-53
2023/12/18 18:58:45;;;;;;;47.93;25.73;;;;;;;17.29;63.32;102484.78;10541141;28;20032;-53
2023/12/18 19:03:45;;;;;;;42.10;23.83;;;;;;;17.30;63.39;102496.31;10540344;28;20273;-52
2023/12/18 19:08:45;;;;;;;36.30;23.02;;;;;;;17.34;62.82;102481.38;10522237;28;20040;-54
2023/12/18 19:13:46;;;;;;;37.03;22.37;;;;;;;17.35;62.50;102477.63;10540243;28;20028;-53
2023/12/18 19:18:46;;;;;;;39.45;21.70;;;;;;;17.35;63.29;102507.13;10540535;28;20724;-53
2023/12/18 19:23:46;;;;;;;45.70;23.90;;;;;;;17.35;63.84;102488.34;10539643;28;20451;-49
2023/12/18 19:28:47;;;;;;;35.42;20.23;;;;;;;17.39;62.79;102484.94;10540042;28;20277;-55
2023/12/18 19:33:47;;;;;;;43.80;22.58;;;;;;;17.36;62.42;102493.47;10521635;28;20028;-54
2023/12/18 19:38:47;;;;;;;35.13;20.03;;;;;;;17.37;62.93;102468.28;10523705;28;20032;-54
2023/12/18 19:43:48;;;;;;;33.60;20.33;;;;;;;17.43;61.44;102487.97;10495943;28;20646;-53
2023/12/18 19:48:48;;;;;;;32.60;20.15;;;;;;;17.43;62.46;102472.69;10505307;28;20024;-54
2023/12/18 19:53:48;;;;;;;33.03;19.30;;;;;;;17.44;62.20;102468.13;10522186;28;20032;-54
2023/12/18 19:58:49;;;;;;;27.27;17.40;;;;;;;17.50;61.74;102481.34;10515114;28;20287;-54
2023/12/18 20:03:50;;;;;;;35.60;18.83;;;;;;;17.46;62.17;102482.91;10517068;28;20345;-55
2023/12/18 20:08:50;;;;;;;28.67;17.27;;;;;;;17.46;61.82;102463.31;10535272;28;20044;-55
2023/12/18 20:13:51;;;;;;;28.88;17.02;;;;;;;17.45;62.32;102480.47;10535359;28;20427;-51
2023/12/18 20:18:51;;;;;;;34.47;17.13;;;;;;;17.38;62.16;102483.31;10517136;28;20016;-52
2023/12/18 20:23:52;;;;;;;27.67;15.10;;;;;;;17.35;61.92;102469.59;10534060;28;20031;-54
2023/12/18 20:28:52;;;;;;;25.50;15.60;;;;;;;17.34;62.56;102471.44;10526319;28;20317;-54
2023/12/18 20:33:52;;;;;;;23.70;15.50;;;;;;;17.36;62.61;102487.28;10534384;28;20031;-51
2023/12/18 20:38:53;;;;;;;23.25;14.07;;;;;;;17.34;62.83;102484.88;10518040;28;20290;-50
2023/12/18 20:43:54;;;;;;;28.37;16.67;;;;;;;17.31;61.71;102473.81;10526086;28;20028;-51
2023/12/18 20:48:54;;;;;;;21.63;13.07;;;;;;;17.22;61.99;102427.84;10518720;28;20278;-51
2023/12/18 20:53:54;;;;;;;23.40;14.60;;;;;;;17.14;61.55;102423.69;10514858;28;20024;-49
2023/12/18 20:58:55;;;;;;;23.07;14.43;;;;;;;17.09;61.71;102412.91;10514100;28;20269;-51
2023/12/18 21:03:55;;;;;;;20.10;12.93;;;;;;;17.05;62.33;102410.94;10525021;28;20749;-53
2023/12/18 21:08:56;;;;;;;28.60;13.38;;;;;;;17.01;61.86;102413.28;10510244;28;20356;-53
2023/12/18 21:13:56;;;;;;;22.85;13.10;;;;;;;16.98;61.55;102396.91;10509458;28;20016;-52
2023/12/18 21:18:56;;;;;;;19.20;13.30;;;;;;;16.95;61.65;102382.13;10512901;28;20017;-53
2023/12/18 21:23:57;;;;;;;19.83;12.38;;;;;;;16.89;62.44;102375.84;10510230;28;20263;-51
2023/12/18 21:28:57;;;;;;;18.27;11.77;;;;;;;16.85;61.74;102377.41;10522053;28;20032;-51
2023/12/18 21:33:57;;;;;;;16.58;12.10;;;;;;;16.82;61.63;102369.06;10502958;28;20278;-49
2023/12/18 21:38:58;;;;;;;19.60;12.33;;;;;;;16.81;62.29;102348.66;10535040;28;20012;-52
2023/12/18 21:43:58;;;;;;;18.02;11.48;;;;;;;16.77;62.39;102352.88;10497433;28;20330;-49
2023/12/18 21:48:58;;;;;;;18.57;12.67;;;;;;;16.72;61.79;102391.13;10529269;28;20032;-49
2023/12/18 21:53:59;;;;;;;18.00;11.60;;;;;;;16.70;61.42;102422.69;10533872;28;20286;-50
2023/12/18 21:58:59;;;;;;;22.47;12.67;;;;;;;16.67;62.20;102418.59;10524819;28;20035;-52
2023/12/18 22:03:59;;;;;;;24.10;13.07;;;;;;;16.67;62.49;102433.84;10515625;28;20383;-51
2023/12/18 22:09:03;;;;;;;14.38;11.10;;;;;;;16.60;63.15;102404.53;10533822;28;20297;-51
2023/12/18 22:14:03;;;;;;;17.00;10.82;;;;;;;16.61;62.10;102386.59;10533377;28;20031;-51
2023/12/18 22:19:03;;;;;;;16.67;9.90;;;;;;;16.59;61.77;102400.25;10533661;28;20024;-52
2023/12/18 22:24:05;;;;;;;17.85;10.00;;;;;;;16.56;62.02;102379.28;10519434;28;20021;-51
2023/12/18 22:29:05;;;;;;;16.15;9.75;;;;;;;16.53;62.58;102376.28;10532413;28;20020;-52
2023/12/18 22:34:07;;;;;;;16.13;9.88;;;;;;;16.52;62.08;102377.34;10532763;28;20459;-51
2023/12/18 22:39:08;;;;;;;17.67;10.60;;;;;;;16.50;61.89;102377.56;10533088;28;20039;-51
2023/12/18 22:44:09;;;;;;;13.82;10.43;;;;;;;16.48;61.83;102358.28;10490202;28;20107;-53
2023/12/18 22:49:09;;;;;;;15.40;9.17;;;;;;;16.45;61.69;102342.66;10532660;28;20025;-53